^^
Datos históricos de la estación: Murcia-Puente Tocinos
Diario Informe para Diciembre 20, 2019 Unidades:  Ingés    Métrico   Ambas
Diario Semanal Mensual Anual
  Máxima: Mínima: Promedio:
Temperatura: 68.9 °F 49.5 °F 62.8 °F
Punto de rocio: 58.3 °F 45.5 °F 54.3 °F
Humedad: 88.7% 57.3% 74%
Velocidad viento: 14.7mph 1.4mph 7.1mph
Racha viento: 29mph - -
Viento- - SSO
Presión: 29.8 in 29.6 in -
Precipitación: 0 in    
 
 
Tabla de datos para Diciembre 20, 2019
Hora Temperatura Punto de rocio Presión Viento Velocidad viento Racha viento Humedad Intensidad lluvia(por hora) Nubes
00:04 49.8 °F 45.5 °F 29.8 in ONO 2.6 mph 8 mph 85% 0 in
00:09 49.8 °F 45.5 °F 29.8 in NO 3.6 mph 5 mph 85% 0 in
00:14 49.6 °F 45.5 °F 29.8 in NO 2.7 mph 5 mph 85.5% 0 in
00:19 49.6 °F 45.7 °F 29.8 in NO 2 mph 5.2 mph 86% 0 in
00:24 49.5 °F 45.5 °F 29.8 in NNE 2.2 mph 5 mph 86% 0 in
00:29 49.5 °F 45.7 °F 29.8 in NNE 2.4 mph 5 mph 86.7% 0 in
00:34 49.5 °F 45.9 °F 29.8 in ENE 2.7 mph 5.8 mph 87% 0 in
00:39 49.5 °F 45.9 °F 29.8 in SE 2.9 mph 6 mph 87% 0 in
00:44 49.6 °F 45.9 °F 29.8 in SSE 3 mph 7.4 mph 87% 0 in
00:49 49.6 °F 45.9 °F 29.8 in Sur 3.1 mph 7 mph 87% 0 in
00:54 49.6 °F 45.9 °F 29.8 in Sur 3.4 mph 7 mph 87% 0 in
00:59 49.6 °F 45.9 °F 29.8 in Oeste 3.6 mph 6 mph 87% 0 in
01:04 49.8 °F 46 °F 29.8 in Oeste 2.6 mph 5 mph 87% 0 in
01:09 49.8 °F 46 °F 29.8 in NNO 1.8 mph 5 mph 87% 0 in
01:14 49.8 °F 46 °F 29.8 in NNO 1.9 mph 5 mph 87% 0 in
01:19 49.8 °F 46 °F 29.8 in NNO 2 mph 5.8 mph 87% 0 in
01:24 49.8 °F 46 °F 29.8 in North 2.2 mph 6 mph 87% 0 in
01:29 50 °F 46.2 °F 29.8 in NNE 2.4 mph 6 mph 87% 0 in
01:34 50.2 °F 46.4 °F 29.8 in NE 2.7 mph 5 mph 87% 0 in
01:39 50.2 °F 46.6 °F 29.8 in NE 2.9 mph 5.2 mph 87% 0 in
01:44 50.4 °F 46.6 °F 29.8 in NE 2.4 mph 5 mph 87% 0 in
01:49 50.4 °F 46.6 °F 29.8 in NE 2 mph 8.1 mph 87% 0 in
01:54 50.5 °F 46.8 °F 29.8 in NE 3 mph 8 mph 87% 0 in
01:59 50.5 °F 46.6 °F 29.8 in NNE 4 mph 6 mph 86.2% 0 in
02:04 50.5 °F 46.6 °F 29.8 in NNE 3.2 mph 5 mph 86% 0 in
02:09 50.5 °F 46.4 °F 29.8 in ONO 2.4 mph 6.2 mph 86% 0 in
02:14 50.4 °F 46.4 °F 29.8 in ONO 2.7 mph 6 mph 86.5% 0 in
02:19 50.4 °F 46.6 °F 29.8 in ONO 3.1 mph 8.1 mph 87% 0 in
02:24 50.4 °F 46.6 °F 29.8 in NO 3.6 mph 8.1 mph 87% 0 in
02:29 50.4 °F 46.6 °F 29.7 in NO 4 mph 10.4 mph 87% 0 in
02:34 50.4 °F 46.9 °F 29.7 in NNO 4.3 mph 10 mph 88.2% 0 in
02:39 51.3 °F 48 °F 29.7 in ONO 4.7 mph 7.4 mph 88.7% 0 in
02:44 52.2 °F 48 °F 29.7 in NNO 4.2 mph 7 mph 86.2% 0 in
02:49 52.3 °F 47.8 °F 29.7 in NNO 3.6 mph 6 mph 84.7% 0 in
02:54 52.3 °F 47.7 °F 29.7 in North 3.4 mph 5.9 mph 84.3% 0 in
02:59 52.5 °F 47.8 °F 29.7 in NNE 3.1 mph 6.9 mph 84% 0 in
03:04 52.9 °F 48.2 °F 29.7 in North 3.1 mph 7 mph 84% 0 in
03:09 53.1 °F 48.4 °F 29.8 in NNO 3.1 mph 6.2 mph 84% 0 in
03:14 53.2 °F 48.6 °F 29.8 in North 3.1 mph 6 mph 83.9% 0 in
03:19 53.6 °F 48.6 °F 29.8 in NNO 3.1 mph 5.2 mph 83% 0 in
03:24 54 °F 48.6 °F 29.8 in NO 3 mph 5 mph 82.2% 0 in
03:29 54.3 °F 49.1 °F 29.8 in NO 2.9 mph 4.6 mph 82.3% 0 in
03:34 54.9 °F 49.1 °F 29.8 in NO 2.4 mph 5 mph 81% 0 in
03:39 55 °F 48.7 °F 29.8 in SO 1.8 mph 5.8 mph 79.3% 0 in
03:44 54.9 °F 48.4 °F 29.8 in OSO 1.9 mph 6 mph 79% 0 in
03:49 54.5 °F 48.4 °F 29.8 in OSO 2 mph 4.6 mph 79.5% 0 in
03:54 54.3 °F 48.6 °F 29.8 in OSO 1.9 mph 5 mph 80.7% 0 in
03:59 54.7 °F 48.9 °F 29.7 in SSO 1.8 mph 5.9 mph 81% 0 in
04:04 54.9 °F 48.9 °F 29.7 in SSE 2.5 mph 6 mph 80.3% 0 in
04:09 55.4 °F 49.5 °F 29.7 in Sur 3.1 mph 5 mph 80.3% 0 in
04:14 55.8 °F 49.3 °F 29.7 in Sur 2.5 mph 3.5 mph 79% 0 in
04:19 56.3 °F 49.8 °F 29.7 in Sur 2 mph 7.4 mph 79% 0 in
04:24 57.2 °F 50.7 °F 29.7 in Sur 2.5 mph 8.1 mph 78.8% 0 in
04:29 58.3 °F 51.3 °F 29.7 in Sur 3.1 mph 13.7 mph 77.3% 0 in
04:34 59.7 °F 51.8 °F 29.7 in Sur 5.8 mph 17.3 mph 74.9% 0 in
04:39 60.6 °F 52 °F 29.7 in Sur 8.5 mph 19.7 mph 72.9% 0 in
04:44 61.3 °F 52 °F 29.7 in Sur 9.4 mph 23.5 mph 71.3% 0 in
04:49 61.7 °F 52 °F 29.7 in Sur 10.2 mph 23 mph 70.3% 0 in
04:54 61.9 °F 52 °F 29.7 in Sur 11.2 mph 21 mph 70% 0 in
04:59 62.1 °F 51.8 °F 29.7 in Sur 12.3 mph 21.9 mph 69.4% 0 in
05:04 61.9 °F 51.8 °F 29.7 in Sur 11.8 mph 22 mph 69.3% 0 in
05:09 61.7 °F 51.8 °F 29.7 in Sur 11.4 mph 20.7 mph 70% 0 in
05:14 61.7 °F 51.8 °F 29.7 in Sur 11.4 mph 21 mph 70% 0 in
05:19 61.5 °F 51.8 °F 29.7 in Sur 11.4 mph 21.3 mph 70.3% 0 in
05:24 61.5 °F 52.2 °F 29.7 in Sur 11.9 mph 23.5 mph 71.2% 0 in
05:29 61.5 °F 52.3 °F 29.7 in Sur 12.3 mph 23 mph 72% 0 in
05:34 61.5 °F 52.7 °F 29.7 in Sur 13 mph 25.6 mph 72.9% 0 in
05:39 61.5 °F 52.9 °F 29.7 in Sur 13.7 mph 26 mph 73% 0 in
05:44 61.5 °F 53.1 °F 29.7 in Sur 13.7 mph 24 mph 73.6% 0 in
05:49 61.5 °F 53.2 °F 29.7 in Sur 13.7 mph 19 mph 74% 0 in
05:54 61.5 °F 53.2 °F 29.7 in Sur 11.9 mph 19 mph 74% 0 in
05:59 61.5 °F 53.2 °F 29.7 in Sur 10.2 mph 19 mph 74.2% 0 in
06:04 61.5 °F 53.6 °F 29.7 in Sur 10.1 mph 19.7 mph 75% 0 in
06:09 61.9 °F 53.8 °F 29.7 in Sur 10 mph 23 mph 75% 0 in
06:14 61.9 °F 53.8 °F 29.7 in Sur 11.6 mph 23 mph 75% 0 in
06:19 61.5 °F 53.8 °F 29.7 in SSO 13 mph 21 mph 75.5% 0 in
06:24 61.5 °F 54 °F 29.7 in SSO 11.3 mph 17 mph 76% 0 in
06:29 61.7 °F 54.1 °F 29.7 in SSO 9.7 mph 16 mph 76% 0 in
06:34 61.5 °F 54 °F 29.7 in SSO 9.1 mph 16.1 mph 76% 0 in
06:39 61.5 °F 54 °F 29.7 in SSO 8.5 mph 16.1 mph 76.5% 0 in
06:44 61.5 °F 54.1 °F 29.7 in Sur 9.6 mph 17.5 mph 77% 0 in
06:49 61.7 °F 54.5 °F 29.7 in SSO 10.7 mph 22.3 mph 77% 0 in
06:54 61.9 °F 54.7 °F 29.7 in SSO 10.9 mph 22 mph 77.1% 0 in
06:59 61.9 °F 54.9 °F 29.7 in Sur 11.2 mph 22 mph 78% 0 in
07:04 62.1 °F 55 °F 29.7 in Sur 11.9 mph 24.6 mph 77.8% 0 in
07:09 62.2 °F 55 °F 29.7 in Sur 12.5 mph 25 mph 77% 0 in
07:14 62.4 °F 55 °F 29.7 in Sur 13.6 mph 24.6 mph 77% 0 in
07:19 62.4 °F 55 °F 29.7 in SSO 14.7 mph 27.6 mph 76.9% 0 in
07:24 62.4 °F 54.9 °F 29.7 in Sur 14.6 mph 28 mph 76.4% 0 in
07:29 62.2 °F 54.9 °F 29.7 in Sur 14.5 mph 22.3 mph 77% 0 in
07:34 62.2 °F 54.9 °F 29.7 in Sur 14 mph 22 mph 77% 0 in
07:39 62.2 °F 54.9 °F 29.7 in Sur 13.5 mph 21 mph 76.8% 0 in
07:44 62.2 °F 54.7 °F 29.7 in Sur 12.7 mph 19 mph 76% 0 in
07:49 62.2 °F 54.7 °F 29.7 in Sur 11.8 mph 19.7 mph 76% 0 in
07:54 62.6 °F 54.7 °F 29.7 in Sur 11.6 mph 20.1 mph 75.4% 0 in
07:59 63 °F 54.9 °F 29.7 in Sur 11.4 mph 21 mph 75% 0 in
08:04 62.8 °F 54.9 °F 29.7 in Sur 11 mph 21 mph 75.3% 0 in
08:09 62.8 °F 55 °F 29.7 in Sur 10.7 mph 23 mph 76% 0 in
08:14 62.8 °F 55.4 °F 29.7 in Sur 11.2 mph 28.8 mph 76.5% 0 in
08:19 62.8 °F 55.6 °F 29.7 in Sur 11.8 mph 29 mph 77% 0 in
08:24 62.6 °F 55.4 °F 29.7 in SSE 12.4 mph 25.6 mph 77.3% 0 in
08:29 62.8 °F 55.4 °F 29.6 in SSE 13 mph 26 mph 77.1% 0 in
08:34 62.8 °F 55.6 °F 29.6 in SSE 13.8 mph 22 mph 77.2% 0 in
08:39 63 °F 55.6 °F 29.7 in SSE 14.5 mph 22 mph 77% 0 in
08:44 63.1 °F 55.6 °F 29.7 in Sur 13 mph 23.5 mph 76.4% 0 in
08:49 63.5 °F 55.6 °F 29.7 in SSO 11.8 mph 23 mph 75% 0 in
08:54 63.7 °F 55.4 °F 29.7 in SO 10.7 mph 17 mph 74.5% 0 in
08:59 63.9 °F 55.2 °F 29.7 in SSO 9.7 mph 18.5 mph 73.9% 0 in
09:04 64 °F 55.2 °F 29.7 in SSO 9.9 mph 19 mph 73% 0 in
09:09 64.4 °F 55.2 °F 29.7 in Sur 10 mph 20.8 mph 72.1% 0 in
09:14 64.8 °F 55.4 °F 29.7 in Sur 10.7 mph 25.3 mph 71.6% 0 in
09:19 64.9 °F 55.4 °F 29.7 in SSE 11.4 mph 25 mph 71% 0 in
09:24 64.9 °F 55.4 °F 29.7 in SSE 13 mph 22 mph 71% 0 in
09:29 65.5 °F 55 °F 29.7 in SSE 14.5 mph 22 mph 68.9% 0 in
09:34 66.2 °F 54.7 °F 29.7 in SSE 13.5 mph 22 mph 66.4% 0 in
09:39 67.3 °F 53.8 °F 29.7 in Sur 12.5 mph 26.8 mph 61.8% 0 in
09:44 68.5 °F 53.4 °F 29.6 in Sur 11.4 mph 27 mph 58.4% 0 in
09:49 68.9 °F 53.1 °F 29.6 in Sur 10.2 mph 21.5 mph 57.3% 0 in
09:54 68.7 °F 53.6 °F 29.7 in SSE 9.4 mph 22 mph 58.6% 0 in
09:59 67.6 °F 54.9 °F 29.7 in SSE 8.7 mph 22.3 mph 63.4% 0 in
10:04 66.9 °F 54.7 °F 29.7 in Sur 10.3 mph 24.8 mph 64.5% 0 in
10:09 67.6 °F 54 °F 29.7 in SSO 11.4 mph 25.3 mph 61.5% 0 in
10:14 68.2 °F 54.1 °F 29.7 in SSO 12.7 mph 25 mph 61% 0 in
10:19 68 °F 54.1 °F 29.7 in SSO 14 mph 21.3 mph 61% 0 in
10:24 68 °F 54.3 °F 29.7 in SSO 12.2 mph 21 mph 61.6% 0 in
10:29 67.8 °F 54.3 °F 29.7 in Sur 10.7 mph 21 mph 62% 0 in
10:34 67.5 °F 54.9 °F 29.7 in Sur 9.7 mph 15 mph 64.2% 0 in
10:39 66.9 °F 55 °F 29.7 in Sur 8.7 mph 15 mph 65.8% 0 in
10:44 66.7 °F 55 °F 29.7 in SSO 8 mph 13 mph 66.1% 0 in
10:49 66.7 °F 55.4 °F 29.7 in Sur 7.4 mph 10.4 mph 67% 0 in
10:54 66.7 °F 55.4 °F 29.7 in SSE 6.8 mph 16.1 mph 67% 0 in
10:59 66.7 °F 55.4 °F 29.7 in Sur 6.2 mph 16 mph 67% 0 in
11:04 66.7 °F 55.8 °F 29.7 in Sur 7.3 mph 13 mph 67.9% 0 in
11:09 66.7 °F 55.6 °F 29.7 in Sur 8.1 mph 11.5 mph 67.4% 0 in
11:14 66.9 °F 55.6 °F 29.7 in SSE 7.7 mph 12 mph 67% 0 in
11:19 67.1 °F 55.4 °F 29.7 in Sur 7.4 mph 11 mph 66.3% 0 in
11:24 67.3 °F 55.6 °F 29.7 in Sur 7.4 mph 12.7 mph 66% 0 in
11:29 67.5 °F 55.8 °F 29.7 in SSO 7.4 mph 13 mph 66% 0 in
11:34 67.3 °F 55.6 °F 29.7 in SSO 7.5 mph 17.3 mph 66% 0 in
11:39 67.3 °F 55.6 °F 29.7 in Sur 7.6 mph 17 mph 66% 0 in
11:44 66.9 °F 55.6 °F 29.7 in Sur 8.1 mph 13 mph 66.6% 0 in
11:49 66.9 °F 55.6 °F 29.7 in SSO 8.5 mph 16.1 mph 67% 0 in
11:54 67.1 °F 55.6 °F 29.7 in SSO 8.3 mph 16.1 mph 66.8% 0 in
11:59 67.3 °F 55.8 °F 29.7 in SSO 8.1 mph 16 mph 66.6% 0 in
12:04 67.3 °F 55.9 °F 29.7 in SSO 8.4 mph 14 mph 67% 0 in
12:09 67.3 °F 55.9 °F 29.7 in Sur 8.7 mph 15.2 mph 67.1% 0 in
12:14 67.3 °F 56.5 °F 29.7 in Sur 8.1 mph 17.8 mph 68% 0 in
12:19 67.3 °F 56.5 °F 29.7 in Sur 7.4 mph 18.4 mph 68% 0 in
12:24 67.3 °F 56.5 °F 29.7 in SSE 8.4 mph 15 mph 68.1% 0 in
12:29 67.3 °F 56.5 °F 29.7 in Sur 9.2 mph 14 mph 68% 0 in
12:34 67.5 °F 56.5 °F 29.7 in Sur 8.8 mph 15.9 mph 68% 0 in
12:39 67.5 °F 56.7 °F 29.7 in Sur 8.5 mph 16 mph 68.4% 0 in
12:44 67.6 °F 57 °F 29.7 in Sur 8.9 mph 15 mph 68.9% 0 in
12:49 67.6 °F 57 °F 29.7 in SSO 9.2 mph 15 mph 68.8% 0 in
12:54 67.6 °F 56.7 °F 29.7 in SSO 8.3 mph 12 mph 68% 0 in
12:59 67.6 °F 56.8 °F 29.7 in SSO 7.4 mph 11.2 mph 68% 0 in
13:04 67.8 °F 56.7 °F 29.7 in Sur 6.8 mph 11 mph 67.3% 0 in
13:09 67.8 °F 56.5 °F 29.7 in SSO 6.2 mph 11 mph 67% 0 in
13:14 67.8 °F 56.8 °F 29.7 in SO 6 mph 11 mph 67.6% 0 in
13:19 67.8 °F 56.7 °F 29.7 in SO 5.9 mph 10 mph 67.4% 0 in
13:24 67.8 °F 56.8 °F 29.7 in SSO 5.5 mph 10.4 mph 68% 0 in
13:29 67.6 °F 56.8 °F 29.7 in OSO 5.2 mph 10 mph 68.5% 0 in
13:34 67.5 °F 57 °F 29.7 in OSO 5.2 mph 8.5 mph 69% 0 in
13:39 67.5 °F 57.2 °F 29.7 in SO 5.2 mph 9 mph 69.5% 0 in
13:44 67.3 °F 57.2 °F 29.7 in SSO 5.2 mph 9.7 mph 70% 0 in
13:49 67.3 °F 57.2 °F 29.7 in SSO 5.2 mph 11.2 mph 70% 0 in
13:54 67.3 °F 57.2 °F 29.7 in Sur 6.4 mph 12.7 mph 70% 0 in
13:59 67.1 °F 57 °F 29.7 in Sur 7.6 mph 13 mph 70% 0 in
14:04 67.3 °F 57.4 °F 29.7 in Sur 6.7 mph 8.1 mph 70.5% 0 in
14:09 67.3 °F 57.6 °F 29.7 in Sur 5.9 mph 8 mph 71% 0 in
14:14 67.3 °F 57.6 °F 29.7 in SSO 5.3 mph 7.4 mph 71% 0 in
14:19 67.3 °F 57.6 °F 29.7 in SSO 4.7 mph 7.4 mph 71% 0 in
14:24 67.3 °F 57.6 °F 29.7 in SO 4.7 mph 7 mph 71.1% 0 in
14:29 67.3 °F 57.9 °F 29.7 in SO 4.7 mph 7 mph 72% 0 in
14:34 66.9 °F 57.7 °F 29.7 in SO 3.2 mph 5 mph 72% 0 in
14:39 66.9 °F 57.9 °F 29.7 in SO 2 mph 5 mph 73% 0 in
14:44 66.7 °F 57.7 °F 29.7 in SSO 1.7 mph 6.2 mph 73% 0 in
14:49 66.7 °F 58.1 °F 29.7 in SSO 1.4 mph 6.9 mph 73.9% 0 in
14:54 66.6 °F 58.3 °F 29.7 in SSO 2.8 mph 7 mph 74.9% 0 in
14:59 66.4 °F 58.3 °F 29.7 in Sur 4 mph 10.7 mph 75.4% 0 in
15:04 66.2 °F 58.3 °F 29.7 in Sur 4.8 mph 13.8 mph 75.6% 0 in
15:09 66.4 °F 58.1 °F 29.7 in Sur 5.4 mph 14 mph 75% 0 in
15:14 66.4 °F 57.9 °F 29.7 in SSO 6.7 mph 14 mph 74.2% 0 in
15:19 66.6 °F 57.7 °F 29.7 in Sur 8.1 mph 15 mph 73.4% 0 in
15:24 66.6 °F 57.4 °F 29.7 in Sur 7.8 mph 16.1 mph 72.1% 0 in
15:29 66.6 °F 57.4 °F 29.6 in Sur 7.4 mph 16.1 mph 72% 0 in
15:34 66.6 °F 57.2 °F 29.6 in Sur 7.8 mph 16.1 mph 71.7% 0 in
15:39 66.6 °F 56.8 °F 29.7 in SSO 8.1 mph 16.1 mph 70.6% 0 in
15:44 66.7 °F 56.7 °F 29.7 in Sur 8.1 mph 17.5 mph 70% 0 in
15:49 66.9 °F 56.3 °F 29.7 in Sur 8.1 mph 17.3 mph 69% 0 in
15:54 66.7 °F 56.5 °F 29.7 in Sur 8.1 mph 15 mph 69.6% 0 in
15:59 66.7 °F 56.1 °F 29.7 in SSE 8.1 mph 12.7 mph 69% 0 in
16:04 66.7 °F 56.1 °F 29.7 in Sur 7.7 mph 13 mph 69% 0 in
16:09 66.7 °F 56.1 °F 29.7 in SSE 7.4 mph 13.7 mph 69% 0 in
16:14 66.7 °F 56.3 °F 29.6 in Sur 7.8 mph 14 mph 69% 0 in
16:19 66.9 °F 56.5 °F 29.6 in Sur 8.1 mph 18.5 mph 69.3% 0 in
16:24 66.7 °F 56.7 °F 29.6 in Sur 8.9 mph 19 mph 70.4% 0 in
16:29 66.4 °F 56.7 °F 29.6 in SSE 9.7 mph 18 mph 71% 0 in
16:34 66.2 °F 56.5 °F 29.6 in SSE 9.9 mph 18.4 mph 71% 0 in
16:39 66.2 °F 56.5 °F 29.6 in Sur 10 mph 18 mph 71% 0 in
16:44 66 °F 56.7 °F 29.6 in Sur 9 mph 13 mph 71.6% 0 in
16:49 66 °F 56.7 °F 29.6 in Sur 8.1 mph 17.3 mph 72% 0 in
16:54 66 °F 56.7 °F 29.6 in Sur 8.3 mph 17 mph 72% 0 in
16:59 66.2 °F 56.8 °F 29.6 in SSO 8.5 mph 13 mph 72% 0 in
17:04 66.2 °F 56.8 °F 29.6 in Sur 7.2 mph 10 mph 72% 0 in
17:09 66 °F 57 °F 29.6 in Sur 6.2 mph 9 mph 73% 0 in
17:14 66 °F 57.2 °F 29.6 in Sur 5.2 mph 8.1 mph 73.2% 0 in
17:19 66 °F 57.6 °F 29.6 in SSO 4 mph 8.5 mph 74% 0 in
17:24 66 °F 57.4 °F 29.6 in SSO 4.2 mph 9 mph 74% 0 in
17:29 65.8 °F 57.7 °F 29.6 in SO 4.3 mph 8.1 mph 74.9% 0 in
17:34 65.8 °F 57.7 °F 29.6 in SSO 4.3 mph 11.5 mph 75% 0 in
17:39 65.8 °F 58.1 °F 29.6 in SSO 4.3 mph 12.7 mph 75.8% 0 in
17:44 65.8 °F 58.1 °F 29.6 in SSO 5.3 mph 13 mph 76% 0 in
17:49 65.7 °F 57.9 °F 29.6 in SSO 6.2 mph 9 mph 76% 0 in
17:54 65.7 °F 57.7 °F 29.6 in Sur 5.7 mph 9.2 mph 75.7% 0 in
17:59 65.8 °F 57.7 °F 29.6 in SSE 5.2 mph 9.2 mph 75% 0 in
18:04 65.7 °F 57.6 °F 29.6 in SSO 5.2 mph 9 mph 75% 0 in
18:09 65.7 °F 57.6 °F 29.6 in SSO 5.2 mph 9.2 mph 75% 0 in
18:14 65.7 °F 57.6 °F 29.6 in SO 5.3 mph 14 mph 75% 0 in
18:19 65.7 °F 57.6 °F 29.6 in SO 5.4 mph 14 mph 75% 0 in
18:24 65.7 °F 57.7 °F 29.6 in SSO 4.8 mph 13.8 mph 75.5% 0 in
18:29 65.5 °F 57.7 °F 29.6 in SSO 4.3 mph 14 mph 76% 0 in
18:34 65.5 °F 57.9 °F 29.6 in SO 4.8 mph 10.4 mph 76.7% 0 in
18:39 65.3 °F 57.9 °F 29.6 in SO 5.4 mph 10 mph 77% 0 in
18:44 65.1 °F 57.7 °F 29.6 in OSO 4.8 mph 9 mph 77% 0 in
18:49 65.1 °F 57.9 °F 29.6 in OSO 4.3 mph 6.9 mph 77.5% 0 in
18:54 64.9 °F 57.9 °F 29.6 in SSO 4 mph 8.1 mph 78% 0 in
18:59 64.9 °F 57.9 °F 29.6 in SO 3.6 mph 10.4 mph 78% 0 in
19:04 64.9 °F 57.9 °F 29.6 in SO 4.4 mph 10 mph 77.8% 0 in
19:09 64.9 °F 57.6 °F 29.6 in SO 5.2 mph 8 mph 77% 0 in
19:14 64.9 °F 57.6 °F 29.6 in Sur 4.5 mph 7.4 mph 77% 0 in
19:19 64.9 °F 57.6 °F 29.6 in ESE 4 mph 7 mph 77% 0 in
19:24 64.4 °F 57.2 °F 29.6 in ENE 3.2 mph 5 mph 77.6% 0 in
19:29 63.7 °F 57.2 °F 29.6 in NE 2.4 mph 5.8 mph 79.2% 0 in
19:34 63.1 °F 57 °F 29.6 in NNE 2.4 mph 6 mph 80.7% 0 in
19:39 62.8 °F 57.2 °F 29.6 in NE 2.4 mph 5 mph 81.9% 0 in
19:44 62.4 °F 57.2 °F 29.6 in ONO 2.4 mph 5 mph 82.9% 0 in
19:49 62.4 °F 57.2 °F 29.6 in Oeste 2.4 mph 5.2 mph 83% 0 in
19:54 62.4 °F 57.2 °F 29.6 in NO 2.4 mph 5 mph 83% 0 in
19:59 62.2 °F 57 °F 29.6 in NNE 2.4 mph 5 mph 83% 0 in
20:04 62.1 °F 56.8 °F 29.6 in NE 2.1 mph 5 mph 83.3% 0 in
20:09 62.1 °F 57.4 °F 29.6 in Sur 1.8 mph 8.1 mph 84.4% 0 in
20:14 62.4 °F 57.6 °F 29.6 in SSE 2.5 mph 8.7 mph 84% 0 in
20:19 63 °F 57.7 °F 29.6 in SSO 3.1 mph 10.7 mph 82.8% 0 in
20:24 63.9 °F 57.7 °F 29.6 in SSO 4.6 mph 11.8 mph 80.4% 0 in
20:29 64.8 °F 57.7 °F 29.6 in SSO 6.2 mph 15.2 mph 78.1% 0 in
20:34 65.1 °F 57.6 °F 29.6 in SSO 6.9 mph 15 mph 76.1% 0 in
20:39 65.7 °F 57.4 °F 29.6 in SSO 7.6 mph 19.6 mph 74.9% 0 in
20:44 65.7 °F 57 °F 29.6 in SSO 8.7 mph 20 mph 74% 0 in
20:49 65.7 °F 57 °F 29.6 in SSO 9.7 mph 15 mph 73.6% 0 in
20:54 65.8 °F 56.8 °F 29.6 in SSO 8.9 mph 15 mph 73% 0 in
20:59 65.7 °F 56.8 °F 29.6 in SSO 8.1 mph 12 mph 72.8% 0 in
21:04 65.7 °F 56.5 °F 29.6 in SSO 7.4 mph 11.8 mph 72% 0 in
21:09 65.8 °F 56.3 °F 29.6 in SSO 6.9 mph 14 mph 71.4% 0 in
21:14 66 °F 56.1 °F 29.6 in SSO 7.5 mph 15 mph 70.3% 0 in
21:19 66.6 °F 55.9 °F 29.6 in SSO 8.1 mph 16.3 mph 68.9% 0 in
21:24 66.7 °F 55.6 °F 29.6 in SSO 8.9 mph 16 mph 67.5% 0 in
21:29 66.9 °F 55.6 °F 29.6 in SSO 9.7 mph 15 mph 66.8% 0 in
21:34 67.1 °F 55.2 °F 29.6 in SSO 9.4 mph 14 mph 65.7% 0 in
21:39 67.5 °F 55.2 °F 29.6 in SSO 9.2 mph 15.2 mph 64.6% 0 in
21:44 67.6 °F 55 °F 29.6 in SSO 8.8 mph 15 mph 64% 0 in
21:49 67.8 °F 55.2 °F 29.6 in SSO 8.5 mph 15.2 mph 64% 0 in
21:54 67.6 °F 55.2 °F 29.6 in SSO 8.5 mph 15.2 mph 64.4% 0 in
21:59 67.5 °F 55.2 °F 29.6 in SSO 8.5 mph 15 mph 65% 0 in
22:04 67.3 °F 55.4 °F 29.6 in SSO 8.5 mph 15 mph 66% 0 in
22:09 67.3 °F 55.6 °F 29.6 in SSO 8.5 mph 15 mph 66% 0 in
22:14 67.1 °F 55.4 °F 29.6 in SSO 8.5 mph 15 mph 66% 0 in
22:19 66.7 °F 55.4 °F 29.6 in SSO 8.5 mph 13 mph 66.6% 0 in
22:24 66.6 °F 55.4 °F 29.6 in SSO 7.3 mph 10.4 mph 67% 0 in
22:29 66.4 °F 55.4 °F 29.6 in SSO 6.2 mph 11.5 mph 67.8% 0 in
22:34 66.4 °F 55.6 °F 29.6 in SSO 6.5 mph 12 mph 68% 0 in
22:39 66.4 °F 55.6 °F 29.6 in SSO 6.9 mph 10 mph 68% 0 in
22:44 66.4 °F 55.4 °F 29.6 in SSO 6.6 mph 11.8 mph 67.8% 0 in
22:49 66.6 °F 55.4 °F 29.6 in SSO 6.4 mph 12 mph 67.1% 0 in
22:54 66.4 °F 55.4 °F 29.6 in Sur 6.9 mph 13 mph 68% 0 in
22:59 65.8 °F 55.4 °F 29.6 in Sur 7.4 mph 13 mph 68.7% 0 in
23:04 65.7 °F 55.2 °F 29.6 in SSO 8 mph 15.2 mph 69% 0 in
23:09 65.7 °F 55.4 °F 29.6 in SSO 8.5 mph 15 mph 69.4% 0 in
23:14 65.7 °F 55.6 °F 29.6 in SSO 8.5 mph 13.8 mph 70% 0 in
23:19 65.5 °F 55.4 °F 29.6 in SSO 8.5 mph 15.2 mph 70% 0 in
23:24 65.5 °F 55.4 °F 29.6 in SSO 8.6 mph 15 mph 70% 0 in
23:29 65.5 °F 55.4 °F 29.6 in SO 8.7 mph 14 mph 70% 0 in
23:34 65.7 °F 55.6 °F 29.6 in SSO 8.6 mph 15 mph 70% 0 in
23:39 65.5 °F 55.4 °F 29.6 in Sur 8.5 mph 15 mph 70.1% 0 in
23:44 65.1 °F 55.6 °F 29.6 in SSO 9.1 mph 18.4 mph 71% 0 in
23:49 65.1 °F 55.6 °F 29.6 in SSO 9.7 mph 18 mph 71% 0 in
23:54 65.1 °F 55.6 °F 29.6 in SSO 9.9 mph 17.3 mph 70.9% 0 in
23:59 65.7 °F 55.6 °F 29.6 in SSO 10.2 mph 17 mph 69.8% 0 in
Murcia-Puente Tocinos, España
Compliments of Weather Underground - 3.5 mb

La estación de MeteoMurcia.com, publica sus datos en los siguientes proyectos:

Weather Underground PWS IMURCIAP2 Meteoclimatic www.awekas.at

W3Counter
Web Analytics